Creola, Ohio
Current Conditions -  °F | °C
As of 11:10 AM on Thursday 29 Jan 2015 (Local Time) from KUNI Reporting Station
Light Rain Light Rain  
Wind Chill: 29°   Ceiling: 6000
Heat Index: 33°   Visibility: 10mi
Dew Point: 29°   Wind: 5mph
Humidity: 85%   Direction: 190°S
Pressure: 29.91"   Gusts: NA
Location:  39.32°N, 82.47°W
Report Text: KUNI 291610Z AUTO 19004KT 10SM -RA OVC060 01/M01 A2991 RMK AO2 T00071015
Loading
Personal Weather Stations






























Interactive Weather Map New forecast layout! Learn more

10-Day Weather Forecast

Advertisements
Track Severe Weather on mobile